Time;durP1;ratioP1;P1;durP2;ratioP2;P2;SDS_P1;SDS_P2;PMS_P1;PMS_P2;Temp;Humidity;BMP_temperature;BMP_pressure;BME280_temperature;BME280_humidity;BME280_pressure;Samples;Min_cycle;Max_cycle;Signal;HPM_P1;HPM_P2
2023/02/09 00:01:05;;;;;;;13.30;8.23;;;2.70;49.20;;;;;;5034588;28;20088;-78
2023/02/09 00:03:32;;;;;;;14.37;8.03;;;2.70;49.30;;;;;;5034741;28;20073;-76
2023/02/09 00:05:59;;;;;;;12.73;8.03;;;2.70;49.10;;;;;;5034409;28;20526;-76
2023/02/09 00:08:25;;;;;;;12.97;7.63;;;2.70;49.30;;;;;;5033679;28;20048;-76
2023/02/09 00:10:51;;;;;;;12.40;7.97;;;2.70;49.20;;;;;;5032463;28;20041;-76
2023/02/09 00:13:23;;;;;;;14.27;8.27;;;2.70;49.10;;;;;;5033642;28;20144;-75
2023/02/09 00:15:57;;;;;;;14.60;7.27;;;2.70;49.10;;;;;;5033627;28;20383;-76
2023/02/09 00:18:24;;;;;;;12.20;7.73;;;2.70;48.80;;;;;;5033399;28;20456;-77
2023/02/09 00:20:57;;;;;;;13.60;8.03;;;2.70;48.60;;;;;;5033499;28;20115;-77
2023/02/09 00:23:23;;;;;;;;;;;2.70;48.70;;;;;;5033879;28;20041;-77
2023/02/09 00:25:50;;;;;;;13.53;7.83;;;2.70;48.70;;;;;;5033274;28;20386;-76
2023/02/09 00:28:16;;;;;;;15.43;8.07;;;2.70;49.00;;;;;;5033162;28;20484;-76
2023/02/09 00:30:42;;;;;;;12.90;7.53;;;2.70;49.00;;;;;;5033268;28;20033;-77
2023/02/09 00:33:08;;;;;;;13.83;7.83;;;2.60;48.90;;;;;;5033310;28;20055;-75
2023/02/09 00:35:33;;;;;;;13.43;7.93;;;2.60;48.90;;;;;;5033146;28;20041;-76
2023/02/09 00:37:59;;;;;;;12.03;7.27;;;2.60;48.90;;;;;;5033597;28;20041;-75
2023/02/09 00:40:25;;;;;;;13.13;8.23;;;2.60;48.80;;;;;;5033632;28;20121;-76
2023/02/09 00:42:50;;;;;;;11.13;7.27;;;2.60;49.40;;;;;;5033182;28;20040;-75
2023/02/09 00:45:16;;;;;;;12.10;7.20;;;2.60;48.80;;;;;;5033407;28;20037;-75
2023/02/09 00:47:42;;;;;;;12.50;7.47;;;2.60;48.70;;;;;;5033080;28;20039;-76
2023/02/09 00:50:08;;;;;;;12.30;7.23;;;2.60;48.60;;;;;;5033015;28;20209;-76
2023/02/09 00:52:34;;;;;;;12.80;7.67;;;2.60;48.70;;;;;;5032896;28;20037;-74
2023/02/09 00:55:00;;;;;;;13.33;7.53;;;2.50;48.90;;;;;;5032459;28;20052;-75
2023/02/09 00:57:25;;;;;;;13.33;7.50;;;2.60;48.90;;;;;;5032930;28;20037;-76
2023/02/09 00:59:51;;;;;;;13.23;7.63;;;2.50;48.70;;;;;;5032897;28;20045;-76
2023/02/09 01:02:17;;;;;;;11.27;6.93;;;2.50;48.40;;;;;;5032574;28;20029;-76
2023/02/09 01:04:43;;;;;;;11.43;7.17;;;2.50;48.30;;;;;;5032711;28;20089;-76
2023/02/09 01:07:08;;;;;;;12.07;7.47;;;2.50;48.40;;;;;;4989286;28;1262250;-75
2023/02/09 01:09:34;;;;;;;12.03;7.50;;;2.50;48.50;;;;;;5033530;28;20040;-75
2023/02/09 01:12:00;;;;;;;11.97;7.00;;;2.40;48.30;;;;;;5033364;28;20030;-76
2023/02/09 01:14:26;;;;;;;15.63;7.67;;;2.40;48.30;;;;;;5033536;28;20037;-75
2023/02/09 01:16:51;;;;;;;12.70;7.47;;;2.40;48.60;;;;;;5033668;28;20396;-75
2023/02/09 01:19:17;;;;;;;12.90;7.37;;;2.40;48.50;;;;;;5033482;28;20041;-75
2023/02/09 01:21:46;;;;;;;11.70;7.13;;;2.40;48.70;;;;;;5033082;28;20048;-76
2023/02/09 01:24:13;;;;;;;11.40;6.87;;;2.40;48.80;;;;;;5033351;28;20542;-75
2023/02/09 01:26:39;;;;;;;12.30;7.57;;;2.30;48.90;;;;;;5033170;28;20030;-75
2023/02/09 01:29:05;;;;;;;11.23;6.83;;;2.30;49.00;;;;;;5033154;28;20069;-76
2023/02/09 01:31:33;;;;;;;14.07;7.67;;;2.30;49.30;;;;;;5032995;28;20130;-75
2023/02/09 01:34:01;;;;;;;14.80;7.70;;;2.30;49.30;;;;;;5033071;28;20152;-76
2023/02/09 01:36:28;;;;;;;15.00;8.10;;;2.20;49.50;;;;;;5033228;28;20090;-75
2023/02/09 01:38:55;;;;;;;13.23;7.33;;;2.20;49.40;;;;;;5033057;28;20380;-76
2023/02/09 01:41:21;;;;;;;13.27;8.07;;;2.20;49.30;;;;;;5032824;28;20028;-76
2023/02/09 01:44:04;;;;;;;15.43;7.83;;;2.10;49.30;;;;;;5033231;28;20108;-76
2023/02/09 01:46:34;;;;;;;12.77;7.75;;;2.10;49.80;;;;;;5033087;28;20037;-76
2023/02/09 01:49:20;;;;;;;11.00;6.67;;;2.10;49.30;;;;;;5032901;28;20037;-76
2023/02/09 01:51:55;;;;;;;13.67;6.93;;;2.10;48.60;;;;;;5032804;28;20033;-76
2023/02/09 01:54:25;;;;;;;12.83;6.80;;;2.10;48.30;;;;;;5032720;28;20025;-75
2023/02/09 01:56:56;;;;;;;10.40;6.13;;;2.20;48.30;;;;;;5032882;28;20030;-76
2023/02/09 01:59:23;;;;;;;11.93;6.33;;;2.20;47.60;;;;;;5029809;28;20041;-76
2023/02/09 02:01:49;;;;;;;11.50;6.87;;;2.20;47.60;;;;;;5029940;28;20033;-74
2023/02/09 02:04:14;;;;;;;10.83;6.10;;;2.20;47.70;;;;;;5030714;28;20545;-76
2023/02/09 02:06:40;;;;;;;16.13;7.60;;;2.20;47.80;;;;;;5031238;28;20045;-76
2023/02/09 02:09:13;;;;;;;12.33;6.47;;;2.20;47.90;;;;;;5032677;28;20042;-75
2023/02/09 02:11:41;;;;;;;11.23;6.97;;;2.20;47.50;;;;;;5033234;28;20065;-76
2023/02/09 02:14:23;;;;;;;22.73;7.80;;;2.20;47.40;;;;;;5032735;28;20037;-76
2023/02/09 02:17:07;;;;;;;12.20;6.57;;;2.20;47.70;;;;;;5032384;28;20105;-75
2023/02/09 02:19:50;;;;;;;13.27;7.53;;;2.20;47.40;;;;;;5032618;28;20045;-76
2023/02/09 02:22:25;;;;;;;26.33;7.20;;;2.20;47.00;;;;;;5032487;28;20049;-74
2023/02/09 02:25:05;;;;;;;16.20;6.53;;;2.20;46.70;;;;;;5032577;28;20030;-75
2023/02/09 02:28:06;;;;;;;15.47;7.03;;;2.30;46.60;;;;;;5032641;28;20037;-77
2023/02/09 02:31:19;;;;;;;11.20;6.77;;;2.30;46.60;;;;;;5013521;28;20045;-75
2023/02/09 02:34:05;;;;;;;14.05;7.65;;;2.20;46.80;;;;;;5031832;28;20033;-76
2023/02/09 02:36:59;;;;;;;11.87;7.33;;;2.20;46.70;;;;;;5033289;28;20095;-77
2023/02/09 02:39:57;;;;;;;12.37;7.47;;;2.20;46.90;;;;;;5029783;28;20049;-76
2023/02/09 02:42:50;;;;;;;12.60;7.30;;;2.20;46.90;;;;;;5013110;28;20030;-76
2023/02/09 02:45:28;;;;;;;13.70;8.23;;;2.10;47.30;;;;;;5032273;28;20033;-76
2023/02/09 02:48:05;;;;;;;14.83;8.00;;;2.10;48.10;;;;;;5032696;28;20034;-76
2023/02/09 02:50:35;;;;;;;13.60;8.23;;;2.10;48.00;;;;;;5032180;28;20042;-76
2023/02/09 02:53:04;;;;;;;21.03;8.00;;;2.10;47.80;;;;;;5032237;28;20532;-76
2023/02/09 02:55:32;;;;;;;15.70;8.07;;;2.10;47.60;;;;;;5031938;28;20488;-77
2023/02/09 02:58:03;;;;;;;16.67;8.90;;;2.00;47.70;;;;;;5032134;28;20480;-77
2023/02/09 03:00:39;;;;;;;15.53;9.17;;;2.00;48.10;;;;;;5032141;28;20025;-76
2023/02/09 03:03:17;;;;;;;13.93;8.20;;;2.00;48.60;;;;;;5032363;28;20034;-76
2023/02/09 03:05:43;;;;;;;17.87;7.43;;;2.00;48.50;;;;;;5031819;28;20030;-76
2023/02/09 03:08:09;;;;;;;14.13;7.37;;;2.00;48.40;;;;;;5032390;28;20045;-75
2023/02/09 03:10:38;;;;;;;11.70;7.33;;;2.00;48.20;;;;;;5032086;28;20046;-76
2023/02/09 03:13:07;;;;;;;18.17;7.80;;;2.00;47.20;;;;;;5032033;28;20484;-76
2023/02/09 03:15:57;;;;;;;14.27;7.53;;;1.90;47.10;;;;;;5032220;28;20044;-76
2023/02/09 03:18:41;;;;;;;24.07;8.43;;;1.90;47.40;;;;;;5032980;28;20085;-76
2023/02/09 03:21:26;;;;;;;16.07;9.43;;;1.90;47.30;;;;;;5035645;28;20033;-76
2023/02/09 03:24:05;;;;;;;17.47;8.70;;;1.90;48.10;;;;;;5035608;28;20113;-75
2023/02/09 03:26:48;;;;;;;14.80;8.53;;;1.80;48.80;;;;;;5035538;28;20064;-77
2023/02/09 03:29:15;;;;;;;20.35;9.63;;;1.80;48.80;;;;;;5035504;28;20041;-76
2023/02/09 03:31:42;;;;;;;15.63;9.33;;;1.80;48.80;;;;;;5035454;28;20037;-76
2023/02/09 03:34:09;;;;;;;17.27;9.50;;;1.80;48.80;;;;;;5035326;28;20030;-77
2023/02/09 03:36:37;;;;;;;13.73;8.87;;;1.80;49.00;;;;;;5035556;28;20040;-77
2023/02/09 03:39:03;;;;;;;17.53;9.30;;;1.80;49.20;;;;;;5035093;28;20484;-78
2023/02/09 03:41:29;;;;;;;14.23;8.80;;;1.70;49.10;;;;;;5035216;28;20026;-77
2023/02/09 03:46:40;;;;;;;15.40;9.20;;;1.70;49.10;;;;;;5035178;28;20088;-76
2023/02/09 03:49:06;;;;;;;14.10;8.03;;;1.70;49.30;;;;;;5034922;28;20033;-76
2023/02/09 03:51:31;;;;;;;14.63;8.83;;;1.70;49.40;;;;;;5033604;28;20040;-76
2023/02/09 03:53:57;;;;;;;14.57;9.10;;;1.70;49.50;;;;;;5035233;28;20029;-77
2023/02/09 03:56:23;;;;;;;16.47;8.93;;;1.80;49.20;;;;;;5034842;28;20399;-77
2023/02/09 03:58:50;;;;;;;14.77;8.53;;;1.70;48.90;;;;;;5034394;28;20045;-78
2023/02/09 04:01:16;;;;;;;13.00;8.33;;;1.70;49.10;;;;;;5034948;28;20037;-75
2023/02/09 04:03:42;;;;;;;17.13;8.80;;;1.70;49.40;;;;;;5034790;28;20064;-77
2023/02/09 04:06:11;;;;;;;21.40;9.03;;;1.70;49.40;;;;;;5034668;28;20053;-77
2023/02/09 04:08:37;;;;;;;14.47;8.90;;;1.70;49.30;;;;;;5034795;28;20053;-77
2023/02/09 04:11:02;;;;;;;16.47;9.43;;;1.70;49.50;;;;;;5034703;28;20080;-75
2023/02/09 04:13:28;;;;;;;18.80;9.27;;;1.70;49.70;;;;;;5034596;28;20097;-77
2023/02/09 04:15:54;;;;;;;17.53;9.10;;;1.70;49.70;;;;;;5033416;28;20048;-77
2023/02/09 04:18:20;;;;;;;14.30;8.70;;;1.70;49.50;;;;;;5034668;28;20077;-73
2023/02/09 04:20:46;;;;;;;15.53;8.83;;;1.60;49.50;;;;;;5034250;28;20038;-77
2023/02/09 04:23:12;;;;;;;14.10;8.07;;;1.70;49.50;;;;;;5034511;28;20130;-77
2023/02/09 04:25:37;;;;;;;15.77;8.83;;;1.60;49.60;;;;;;5034520;28;20120;-77
2023/02/09 04:28:03;;;;;;;15.43;8.83;;;1.60;49.80;;;;;;5034535;28;20116;-75
2023/02/09 04:30:29;;;;;;;15.93;8.70;;;1.60;49.90;;;;;;5033534;28;20037;-76
2023/02/09 04:32:55;;;;;;;15.43;8.97;;;1.70;50.00;;;;;;5034245;28;20180;-77
2023/02/09 04:35:21;;;;;;;15.47;8.77;;;1.60;49.90;;;;;;5034286;28;20137;-76
2023/02/09 04:37:46;;;;;;;18.73;9.63;;;1.60;50.10;;;;;;5034050;28;20064;-77
2023/02/09 04:40:12;;;;;;;13.50;8.47;;;1.50;50.40;;;;;;5034100;28;20037;-77
2023/02/09 04:42:38;;;;;;;16.33;9.20;;;1.50;50.30;;;;;;5034173;28;20045;-77
2023/02/09 04:45:05;;;;;;;14.10;8.97;;;1.50;50.40;;;;;;5034145;28;20034;-77
2023/02/09 04:47:31;;;;;;;14.93;8.87;;;1.50;50.30;;;;;;5033592;28;20034;-76
2023/02/09 04:49:56;;;;;;;14.37;8.80;;;1.50;50.20;;;;;;5034033;28;20116;-77
2023/02/09 04:52:22;;;;;;;13.50;8.93;;;1.50;50.10;;;;;;5034031;28;20060;-78
2023/02/09 04:54:48;;;;;;;16.13;9.47;;;1.50;49.50;;;;;;5033706;28;20026;-77
2023/02/09 04:59:57;;;;;;;13.10;8.40;;;1.50;49.70;;;;;;5034005;28;20076;-77
2023/02/09 05:02:23;;;;;;;16.30;9.03;;;1.50;49.40;;;;;;5033563;28;20038;-77
2023/02/09 05:04:49;;;;;;;14.87;9.30;;;1.50;49.50;;;;;;5033890;28;20105;-77
2023/02/09 05:07:14;;;;;;;15.90;8.90;;;1.50;49.40;;;;;;5033389;28;20057;-77
2023/02/09 05:09:40;;;;;;;12.97;8.57;;;1.50;49.10;;;;;;5033573;28;20112;-77
2023/02/09 05:12:08;;;;;;;14.03;8.73;;;1.50;49.00;;;;;;5033743;28;20037;-78
2023/02/09 05:14:34;;;;;;;13.57;8.70;;;1.50;49.40;;;;;;5033285;28;20033;-76
2023/02/09 05:17:00;;;;;;;21.83;9.30;;;1.60;48.90;;;;;;5033592;28;20105;-77
2023/02/09 05:19:26;;;;;;;20.03;9.63;;;1.50;49.00;;;;;;5033404;28;20128;-77
2023/02/09 05:21:52;;;;;;;17.77;8.67;;;1.50;49.40;;;;;;5033003;28;20373;-77
2023/02/09 05:24:18;;;;;;;15.97;9.63;;;1.50;49.80;;;;;;5033111;28;20176;-76
2023/02/09 05:26:43;;;;;;;16.13;9.87;;;1.50;50.00;;;;;;5033191;28;20111;-76
2023/02/09 05:29:09;;;;;;;18.10;9.93;;;1.50;50.20;;;;;;5033398;28;20116;-76
2023/02/09 05:31:35;;;;;;;16.77;9.93;;;1.40;50.30;;;;;;5033271;28;20052;-74
2023/02/09 05:34:01;;;;;;;22.77;10.90;;;1.40;50.40;;;;;;5033283;28;20065;-76
2023/02/09 05:36:26;;;;;;;15.30;9.73;;;1.40;50.50;;;;;;5032948;28;20033;-74
2023/02/09 05:38:52;;;;;;;19.47;10.43;;;1.40;50.50;;;;;;5033076;28;20480;-74
2023/02/09 05:44:03;;;;;;;16.57;10.60;;;1.40;50.50;;;;;;5033198;28;20072;-75
2023/02/09 05:46:28;;;;;;;20.47;10.37;;;1.40;50.40;;;;;;5033375;28;20108;-75
2023/02/09 05:48:54;;;;;;;15.43;9.80;;;1.50;50.30;;;;;;5032849;28;20080;-75
2023/02/09 05:51:20;;;;;;;17.27;10.17;;;1.40;50.30;;;;;;5033202;28;20029;-73
2023/02/09 05:53:45;;;;;;;14.63;10.13;;;1.40;50.30;;;;;;5032879;28;20148;-75
2023/02/09 05:56:11;;;;;;;14.90;9.70;;;1.40;50.30;;;;;;5033180;28;20034;-75
2023/02/09 05:58:37;;;;;;;17.17;10.80;;;1.40;49.70;;;;;;5033075;28;20038;-74
2023/02/09 06:01:04;;;;;;;15.17;10.13;;;1.40;49.70;;;;;;5033057;28;20021;-75
2023/02/09 06:03:30;;;;;;;17.10;9.33;;;1.40;49.90;;;;;;5032726;28;20029;-74
2023/02/09 06:05:56;;;;;;;14.67;8.73;;;1.40;49.90;;;;;;5032791;28;20096;-75
2023/02/09 06:08:22;;;;;;;14.70;8.73;;;1.40;49.90;;;;;;5033013;28;20037;-76
2023/02/09 06:10:47;;;;;;;15.83;10.13;;;1.40;49.80;;;;;;5032801;28;20080;-75
2023/02/09 06:13:13;;;;;;;21.73;8.83;;;1.40;50.00;;;;;;5032907;28;20038;-76
2023/02/09 06:15:39;;;;;;;14.60;9.43;;;1.40;50.20;;;;;;5032770;28;20064;-75
2023/02/09 06:18:04;;;;;;;18.90;9.53;;;1.30;50.30;;;;;;5032533;28;20077;-75
2023/02/09 06:20:30;;;;;;;16.30;8.63;;;1.40;50.40;;;;;;5032575;28;20029;-75
2023/02/09 06:22:56;;;;;;;17.17;9.00;;;1.40;50.20;;;;;;5032848;28;20094;-75
2023/02/09 06:25:22;;;;;;;19.00;10.33;;;1.40;50.40;;;;;;5033280;28;20049;-75
2023/02/09 06:27:47;;;;;;;19.67;11.97;;;1.30;50.40;;;;;;5033497;28;20029;-75
2023/02/09 06:30:13;;;;;;;26.17;11.23;;;1.40;50.50;;;;;;5033149;28;20048;-76
2023/02/09 06:32:39;;;;;;;25.07;10.97;;;1.40;51.10;;;;;;5032534;28;20037;-76
2023/02/09 06:35:05;;;;;;;17.47;10.07;;;1.40;50.50;;;;;;5032636;28;20113;-77
2023/02/09 06:37:31;;;;;;;15.27;9.53;;;1.40;50.60;;;;;;5035471;28;20037;-76
2023/02/09 06:39:56;;;;;;;17.10;10.77;;;1.40;50.60;;;;;;5032616;28;20121;-76
2023/02/09 06:42:22;;;;;;;19.30;9.50;;;1.40;50.30;;;;;;5032478;28;20038;-76
2023/02/09 06:44:48;;;;;;;16.80;9.87;;;1.40;50.20;;;;;;5032906;28;20060;-77
2023/02/09 06:47:14;;;;;;;15.20;9.97;;;1.40;50.30;;;;;;5032309;28;20116;-75
2023/02/09 06:49:39;;;;;;;16.60;8.93;;;1.50;50.60;;;;;;5032326;28;20025;-75
2023/02/09 06:52:05;;;;;;;17.13;9.60;;;1.50;50.70;;;;;;5032447;28;20030;-77
2023/02/09 06:54:31;;;;;;;15.80;9.47;;;1.50;50.50;;;;;;5034827;28;20061;-76
2023/02/09 06:56:57;;;;;;;16.13;9.70;;;1.50;50.30;;;;;;5036513;28;20407;-76
2023/02/09 06:59:23;;;;;;;15.20;9.23;;;1.50;50.20;;;;;;5036076;28;20049;-75
2023/02/09 07:01:50;;;;;;;16.00;9.17;;;1.50;50.50;;;;;;5037146;28;20039;-77
2023/02/09 07:04:16;;;;;;;23.60;9.93;;;1.50;50.60;;;;;;5036493;28;20412;-77
2023/02/09 07:06:41;;;;;;;105.27;14.17;;;1.50;50.70;;;;;;5036662;28;20049;-77
2023/02/09 07:09:07;;;;;;;56.40;12.93;;;1.50;50.70;;;;;;5036995;28;20112;-77
2023/02/09 07:11:33;;;;;;;65.83;13.73;;;1.50;51.10;;;;;;5036653;28;20058;-76
2023/02/09 07:13:59;;;;;;;39.37;13.00;;;1.50;51.20;;;;;;5035866;28;20132;-77
2023/02/09 07:16:24;;;;;;;21.93;11.70;;;1.50;51.30;;;;;;5035803;28;20026;-76
2023/02/09 07:18:50;;;;;;;29.83;13.10;;;1.50;51.20;;;;;;5034473;28;20136;-77
2023/02/09 07:21:18;;;;;;;21.47;11.00;;;1.50;51.40;;;;;;5035253;28;20036;-77
2023/02/09 07:23:45;;;;;;;39.30;12.53;;;1.60;51.30;;;;;;5035450;28;20033;-77
2023/02/09 07:26:14;;;;;;;24.90;10.93;;;1.60;51.50;;;;;;5035500;28;20476;-76
2023/02/09 07:28:40;;;;;;;289.03;27.77;;;1.60;51.40;;;;;;5034597;28;20040;-75
2023/02/09 07:31:09;;;;;;;226.13;21.97;;;1.70;51.30;;;;;;5032522;28;20040;-72
2023/02/09 07:33:35;;;;;;;182.53;23.93;;;1.80;51.60;;;;;;5032681;28;20033;-73
2023/02/09 07:36:05;;;;;;;74.93;14.93;;;1.80;51.70;;;;;;5033736;28;20184;-75
2023/02/09 07:38:31;;;;;;;42.27;11.30;;;1.90;51.60;;;;;;5034836;28;20041;-74
2023/02/09 07:40:58;;;;;;;160.63;19.63;;;1.90;51.20;;;;;;5035464;28;20088;-74
2023/02/09 07:43:24;;;;;;;82.23;14.03;;;2.00;51.50;;;;;;5035032;28;20081;-75
2023/02/09 07:45:50;;;;;;;13.63;9.20;;;2.00;50.70;;;;;;5032248;28;20037;-74
2023/02/09 07:48:16;;;;;;;76.00;13.73;;;2.00;50.20;;;;;;5032317;28;20038;-74
2023/02/09 07:50:48;;;;;;;174.57;18.97;;;2.10;50.40;;;;;;5033833;28;20113;-75
2023/02/09 07:53:14;;;;;;;96.72;13.70;;;2.10;50.40;;;;;;5034491;28;20036;-75
2023/02/09 07:55:39;;;;;;;71.77;13.87;;;2.20;50.50;;;;;;5034917;28;20037;-75
2023/02/09 07:58:05;;;;;;;84.50;12.73;;;2.20;50.10;;;;;;5034503;28;20088;-75
2023/02/09 08:00:31;;;;;;;83.20;12.47;;;2.20;49.80;;;;;;5034859;28;20087;-74
2023/02/09 08:02:59;;;;;;;26.17;11.17;;;2.30;49.60;;;;;;5035017;28;20141;-75
2023/02/09 08:05:27;;;;;;;24.73;9.93;;;2.30;49.80;;;;;;5034822;28;20044;-74
2023/02/09 08:07:54;;;;;;;14.67;9.73;;;2.40;49.10;;;;;;5034793;28;20115;-75
2023/02/09 08:10:19;;;;;;;37.23;10.67;;;2.40;49.20;;;;;;5034447;28;20033;-72
2023/02/09 08:13:03;;;;;;;14.93;8.70;;;2.50;49.40;;;;;;5034671;28;20079;-75
2023/02/09 08:15:49;;;;;;;33.37;11.63;;;2.50;49.00;;;;;;5034602;28;20091;-75
2023/02/09 08:18:26;;;;;;;18.07;8.50;;;2.60;48.90;;;;;;5034635;28;20037;-75
2023/02/09 08:20:52;;;;;;;12.33;8.23;;;2.60;48.90;;;;;;5034445;28;20479;-75
2023/02/09 08:23:23;;;;;;;12.63;7.87;;;2.60;48.50;;;;;;5034234;28;20045;-75
2023/02/09 08:25:50;;;;;;;14.37;8.23;;;2.70;48.20;;;;;;5034267;28;20057;-75
2023/02/09 08:28:20;;;;;;;16.33;10.17;;;2.80;48.00;;;;;;5034632;28;20073;-75
2023/02/09 08:30:47;;;;;;;15.47;9.73;;;2.80;47.80;;;;;;5034473;28;20476;-75
2023/02/09 08:33:13;;;;;;;15.53;7.90;;;2.80;47.70;;;;;;5034221;28;20034;-75
2023/02/09 08:35:39;;;;;;;14.43;8.13;;;2.90;47.10;;;;;;5034057;28;20029;-75
2023/02/09 08:38:05;;;;;;;11.43;7.07;;;2.90;47.20;;;;;;5034130;28;20052;-74
2023/02/09 08:40:34;;;;;;;11.43;7.07;;;3.00;47.30;;;;;;5034224;28;20067;-75
2023/02/09 08:43:00;;;;;;;13.57;7.63;;;3.00;47.10;;;;;;5034301;28;20044;-75
2023/02/09 08:45:27;;;;;;;12.43;7.40;;;3.00;46.90;;;;;;5034023;28;20037;-75
2023/02/09 08:47:53;;;;;;;24.43;14.30;;;3.10;46.70;;;;;;5034208;28;20048;-75
2023/02/09 08:50:19;;;;;;;11.70;7.47;;;3.20;46.90;;;;;;5034021;28;20034;-75
2023/02/09 08:52:44;;;;;;;14.37;7.57;;;3.20;46.10;;;;;;5034020;28;20443;-75
2023/02/09 08:55:10;;;;;;;11.93;7.43;;;3.20;46.20;;;;;;5034076;28;20033;-75
2023/02/09 08:57:36;;;;;;;13.47;7.03;;;3.30;46.50;;;;;;5033656;28;20088;-75
2023/02/09 09:00:03;;;;;;;9.93;6.33;;;3.30;46.50;;;;;;5033693;28;20148;-74
2023/02/09 09:02:29;;;;;;;10.93;6.43;;;3.40;46.20;;;;;;5033994;28;20053;-75
2023/02/09 09:04:55;;;;;;;14.67;7.43;;;3.50;45.70;;;;;;5033838;28;20030;-75
2023/02/09 09:07:20;;;;;;;10.70;6.30;;;3.50;45.90;;;;;;5033341;28;20050;-74
2023/02/09 09:09:46;;;;;;;11.83;7.27;;;3.50;45.20;;;;;;5033382;28;20060;-74
2023/02/09 09:12:12;;;;;;;10.67;6.67;;;3.60;45.20;;;;;;5033381;28;20044;-75
2023/02/09 09:14:39;;;;;;;13.50;7.00;;;3.60;45.30;;;;;;5033699;28;20033;-75
2023/02/09 09:17:05;;;;;;;12.57;6.67;;;3.70;45.50;;;;;;5033101;28;20381;-75
2023/02/09 09:19:30;;;;;;;11.70;7.23;;;3.70;45.60;;;;;;5032875;28;20049;-75
2023/02/09 09:21:57;;;;;;;11.67;7.30;;;3.80;45.10;;;;;;5032972;28;20105;-76
2023/02/09 09:24:26;;;;;;;10.20;6.20;;;3.80;44.50;;;;;;5033285;28;20083;-76
2023/02/09 09:26:53;;;;;;;10.73;6.70;;;3.90;44.70;;;;;;5032797;28;20064;-76
2023/02/09 09:29:19;;;;;;;15.57;6.57;;;3.90;44.70;;;;;;5033038;28;20117;-75
2023/02/09 09:31:45;;;;;;;10.30;6.80;;;4.00;43.70;;;;;;5032931;28;20542;-73
2023/02/09 09:34:10;;;;;;;11.70;6.57;;;4.00;44.00;;;;;;5032152;28;20033;-73
2023/02/09 09:36:36;;;;;;;12.03;6.77;;;4.10;44.20;;;;;;5032498;28;20068;-74
2023/02/09 09:39:02;;;;;;;13.70;7.00;;;4.20;44.40;;;;;;5032101;28;20037;-73
2023/02/09 09:41:32;;;;;;;10.53;6.20;;;4.20;43.40;;;;;;5031895;28;20029;-75
2023/02/09 09:43:59;;;;;;;9.30;6.43;;;4.20;43.70;;;;;;5029830;28;20048;-76
2023/02/09 09:46:46;;;;;;;10.10;6.20;;;4.30;44.20;;;;;;5029542;28;20034;-76
2023/02/09 09:49:34;;;;;;;9.97;5.87;;;4.40;44.00;;;;;;5031801;28;20029;-75
2023/02/09 09:52:14;;;;;;;12.50;6.70;;;4.50;44.30;;;;;;5032398;28;20040;-75
2023/02/09 09:54:40;;;;;;;13.50;6.63;;;4.60;44.20;;;;;;5032389;28;20113;-76
2023/02/09 09:57:23;;;;;;;11.27;6.63;;;4.60;43.20;;;;;;5031890;28;20033;-74
2023/02/09 09:59:50;;;;;;;13.43;6.72;;;4.60;43.60;;;;;;5032722;28;20048;-76
2023/02/09 10:02:17;;;;;;;12.10;6.60;;;4.70;43.90;;;;;;5032866;28;20034;-75
2023/02/09 10:04:43;;;;;;;10.37;6.07;;;4.80;44.50;;;;;;5032819;28;20487;-74
2023/02/09 10:07:14;;;;;;;13.87;6.70;;;4.90;44.30;;;;;;5032439;28;20081;-74
2023/02/09 10:09:47;;;;;;;9.57;6.33;;;4.90;44.10;;;;;;5029598;28;20041;-74
2023/02/09 10:12:30;;;;;;;9.38;6.20;;;5.10;44.10;;;;;;5029808;28;20072;-76
2023/02/09 10:14:56;;;;;;;10.17;6.50;;;5.10;43.90;;;;;;5031050;28;20029;-75
2023/02/09 10:17:21;;;;;;;10.03;6.77;;;5.20;43.80;;;;;;5032271;28;20038;-75
2023/02/09 10:20:06;;;;;;;11.40;6.13;;;5.20;43.70;;;;;;5032359;28;20038;-76
2023/02/09 10:22:32;;;;;;;15.10;6.13;;;5.30;43.50;;;;;;5032374;28;20022;-76
2023/02/09 10:24:58;;;;;;;12.73;7.10;;;5.40;43.20;;;;;;5032529;28;20099;-76
2023/02/09 10:27:30;;;;;;;9.80;6.40;;;5.40;42.60;;;;;;5032558;28;20029;-76
2023/02/09 10:30:19;;;;;;;8.30;6.30;;;5.50;42.50;;;;;;5036100;28;20049;-72
2023/02/09 10:32:45;;;;;;;12.50;6.80;;;5.50;42.60;;;;;;5036398;28;20069;-76
2023/02/09 10:35:50;;;;;;;9.53;5.93;;;5.50;42.90;;;;;;5036465;28;20105;-76
2023/02/09 10:38:18;;;;;;;12.67;6.43;;;5.60;43.20;;;;;;5013992;28;20046;-75
2023/02/09 10:40:46;;;;;;;9.87;6.63;;;5.70;43.20;;;;;;5032698;28;20038;-74
2023/02/09 10:43:31;;;;;;;11.87;6.13;;;5.80;43.60;;;;;;5036194;28;20042;-76
2023/02/09 10:46:01;;;;;;;10.27;6.73;;;5.80;42.60;;;;;;5035344;28;20065;-76
2023/02/09 10:48:37;;;;;;;11.90;6.50;;;5.90;42.10;;;;;;5035535;28;20044;-74
2023/02/09 10:51:14;;;;;;;17.33;6.47;;;5.90;43.00;;;;;;5035179;28;20442;-75
2023/02/09 10:54:03;;;;;;;13.90;6.43;;;6.00;43.20;;;;;;5035195;28;20559;-75
2023/02/09 10:56:40;;;;;;;10.53;5.23;;;6.00;43.60;;;;;;5035654;28;20033;-73
2023/02/09 10:59:22;;;;;;;10.03;6.73;;;6.10;43.20;;;;;;5035096;28;20060;-75
2023/02/09 11:01:59;;;;;;;8.63;5.87;;;6.20;42.80;;;;;;5033823;28;20124;-76
2023/02/09 11:04:35;;;;;;;10.93;5.57;;;6.30;42.60;;;;;;5036285;28;20033;-75
2023/02/09 11:07:08;;;;;;;8.67;6.00;;;6.30;41.90;;;;;;5036374;28;20656;-76
2023/02/09 11:09:41;;;;;;;10.47;6.60;;;6.40;41.50;;;;;;5035009;28;20483;-75
2023/02/09 11:12:11;;;;;;;14.35;7.18;;;6.50;41.60;;;;;;5035579;28;20498;-75
2023/02/09 11:14:36;;;;;;;9.43;6.40;;;6.50;40.80;;;;;;5035859;28;20357;-74
2023/02/09 11:17:17;;;;;;;10.83;6.50;;;6.50;41.20;;;;;;5035516;28;20041;-75
2023/02/09 11:19:51;;;;;;;10.30;6.20;;;6.50;40.40;;;;;;5035656;28;20081;-76
2023/02/09 11:22:54;;;;;;;11.90;6.27;;;6.60;40.90;;;;;;5035228;28;20472;-76
2023/02/09 11:25:31;;;;;;;21.58;5.65;;;6.70;41.30;;;;;;5035111;28;20033;-74
2023/02/09 11:28:25;;;;;;;9.13;5.80;;;6.80;40.90;;;;;;5035095;28;20040;-74
2023/02/09 11:31:00;;;;;;;8.63;5.97;;;6.80;41.10;;;;;;5031924;28;20038;-76
2023/02/09 11:33:44;;;;;;;11.23;7.03;;;6.90;41.10;;;;;;5035117;28;20040;-75
2023/02/09 11:36:18;;;;;;;10.57;6.20;;;7.00;41.10;;;;;;5035267;28;20038;-76
2023/02/09 11:38:53;;;;;;;13.27;6.30;;;7.10;40.80;;;;;;5034850;28;20050;-76
2023/02/09 11:44:33;;;;;;;12.40;6.37;;;7.20;40.00;;;;;;5034898;28;20420;-75
2023/02/09 11:47:06;;;;;;;7.93;6.07;;;7.20;39.60;;;;;;5033552;28;20484;-74
2023/02/09 11:49:44;;;;;;;8.43;5.65;;;7.30;40.20;;;;;;5035503;28;20064;-75
2023/02/09 11:52:15;;;;;;;9.60;6.17;;;7.30;39.60;;;;;;5035179;28;20032;-72
2023/02/09 11:54:46;;;;;;;9.93;6.70;;;7.30;40.00;;;;;;5033681;28;20526;-73
2023/02/09 11:57:26;;;;;;;8.53;6.20;;;7.30;39.30;;;;;;5032652;28;20049;-73
2023/02/09 11:59:57;;;;;;;12.40;7.33;;;7.40;39.50;;;;;;5034562;28;20080;-74
2023/02/09 12:02:36;;;;;;;18.53;9.07;;;7.50;39.60;;;;;;5034177;28;20085;-73
2023/02/09 12:05:04;;;;;;;9.07;6.33;;;7.50;39.70;;;;;;5034746;28;20065;-73
2023/02/09 12:07:50;;;;;;;10.30;6.60;;;7.60;39.60;;;;;;5034639;28;20056;-74
2023/02/09 12:10:22;;;;;;;10.37;5.97;;;7.70;40.90;;;;;;5034373;28;20039;-74
2023/02/09 12:12:58;;;;;;;9.53;5.77;;;7.80;40.40;;;;;;5034055;28;20032;-74
2023/02/09 12:15:36;;;;;;;9.90;5.30;;;7.80;39.40;;;;;;5033991;28;20036;-73
2023/02/09 12:18:05;;;;;;;9.43;5.33;;;7.90;39.70;;;;;;5032524;28;20049;-74
2023/02/09 12:20:37;;;;;;;11.00;5.93;;;8.00;39.10;;;;;;5034610;28;20037;-73
2023/02/09 12:23:32;;;;;;;7.73;5.37;;;7.90;38.00;;;;;;5032791;28;20038;-72
2023/02/09 12:26:10;;;;;;;8.77;5.20;;;7.80;37.50;;;;;;5024291;28;20491;-74
2023/02/09 12:28:46;;;;;;;9.00;5.93;;;7.80;37.70;;;;;;5034637;28;20034;-74
2023/02/09 12:31:25;;;;;;;8.50;5.33;;;7.80;38.60;;;;;;5034266;28;20038;-74
2023/02/09 12:33:57;;;;;;;8.57;5.40;;;7.80;39.10;;;;;;5034499;28;20172;-73
2023/02/09 12:36:34;;;;;;;9.07;5.53;;;7.80;37.70;;;;;;5034392;28;20045;-74
2023/02/09 12:39:20;;;;;;;10.00;5.80;;;7.80;37.50;;;;;;5034116;28;20496;-74
2023/02/09 12:41:46;;;;;;;9.03;5.70;;;7.70;38.00;;;;;;5034297;28;20445;-74
2023/02/09 12:44:12;;;;;;;11.93;6.60;;;7.70;37.80;;;;;;5034262;28;20108;-74
2023/02/09 12:46:43;;;;;;;14.40;6.00;;;7.60;37.90;;;;;;5033785;28;20060;-73
2023/02/09 12:49:19;;;;;;;9.40;5.97;;;7.70;38.60;;;;;;5033672;28;20040;-74
2023/02/09 12:51:53;;;;;;;11.27;5.97;;;7.60;37.50;;;;;;5032643;28;20480;-73
2023/02/09 12:54:41;;;;;;;10.23;5.90;;;7.60;38.10;;;;;;5033665;28;20133;-73
2023/02/09 12:57:16;;;;;;;7.87;5.73;;;7.60;38.40;;;;;;5032265;28;20064;-73
2023/02/09 12:59:54;;;;;;;10.87;6.10;;;7.60;38.70;;;;;;5033256;28;20059;-74
2023/02/09 13:02:45;;;;;;;9.37;6.07;;;7.60;38.00;;;;;;5032970;28;20025;-73
2023/02/09 13:05:39;;;;;;;8.83;5.60;;;7.60;38.40;;;;;;5033359;28;20033;-73
2023/02/09 13:08:04;;;;;;;8.40;5.70;;;7.60;38.50;;;;;;5029742;28;20534;-72
2023/02/09 13:10:30;;;;;;;10.37;6.10;;;7.70;38.60;;;;;;5030513;28;20033;-72
2023/02/09 13:13:10;;;;;;;16.20;6.40;;;7.70;38.00;;;;;;5031206;28;20037;-73